createdAt,value
2018-12-22T00:00:52.910Z,2.27
2018-12-22T00:03:20.393Z,2.50
2018-12-22T00:05:47.872Z,2.13
2018-12-22T00:08:15.369Z,1.87
2018-12-22T00:10:42.910Z,2.07
2018-12-22T00:13:10.477Z,1.83
2018-12-22T00:15:38.098Z,2.40
2018-12-22T00:18:05.588Z,1.87
2018-12-22T00:20:33.066Z,1.63
2018-12-22T00:23:00.649Z,1.80
2018-12-22T00:25:28.181Z,1.57
2018-12-22T00:27:55.650Z,1.60
2018-12-22T00:30:23.236Z,1.83
2018-12-22T00:32:50.707Z,1.77
2018-12-22T00:35:18.190Z,1.80
2018-12-22T00:37:45.669Z,1.93
2018-12-22T00:40:13.160Z,1.63
2018-12-22T00:42:40.631Z,1.67
2018-12-22T00:45:08.171Z,1.30
2018-12-22T00:47:35.690Z,1.50
2018-12-22T00:50:04.213Z,1.40
2018-12-22T00:52:31.694Z,1.60
2018-12-22T00:54:59.198Z,1.40
2018-12-22T00:57:26.666Z,1.40
2018-12-22T00:59:54.313Z,1.27
2018-12-22T01:02:21.772Z,1.10
2018-12-22T01:04:49.253Z,1.10
2018-12-22T01:07:16.834Z,1.27
2018-12-22T01:09:44.316Z,1.20
2018-12-22T01:12:12.076Z,1.27
2018-12-22T01:14:39.530Z,1.20
2018-12-22T01:17:07.093Z,1.00
2018-12-22T01:19:34.648Z,1.00
2018-12-22T01:22:02.126Z,0.93
2018-12-22T01:24:29.597Z,1.10
2018-12-22T01:26:57.088Z,1.00
2018-12-22T01:29:24.564Z,0.93
2018-12-22T01:31:52.045Z,0.97
2018-12-22T01:34:19.559Z,0.57
2018-12-22T01:36:47.094Z,0.80
2018-12-22T01:39:14.584Z,0.60
2018-12-22T01:41:42.073Z,0.80
2018-12-22T01:44:09.662Z,0.57
2018-12-22T01:46:37.191Z,0.57
2018-12-22T01:49:04.669Z,0.70
2018-12-22T01:51:32.176Z,0.60
2018-12-22T01:53:59.645Z,0.97
2018-12-22T01:56:27.161Z,0.60
2018-12-22T01:58:54.633Z,0.77
2018-12-22T02:01:22.180Z,0.80
2018-12-22T02:03:49.713Z,0.70
2018-12-22T02:06:17.207Z,0.83
2018-12-22T02:08:44.684Z,0.90
2018-12-22T02:11:12.197Z,1.20
2018-12-22T02:13:39.745Z,0.90
2018-12-22T02:16:07.200Z,0.60
2018-12-22T02:18:35.094Z,0.80
2018-12-22T02:21:02.576Z,1.20
2018-12-22T02:23:30.057Z,0.80
2018-12-22T02:25:57.541Z,0.90
2018-12-22T02:28:25.115Z,0.70
2018-12-22T02:30:52.590Z,0.93
2018-12-22T02:33:20.153Z,0.93
2018-12-22T02:35:47.639Z,0.70
2018-12-22T02:38:15.130Z,1.10
2018-12-22T02:40:42.713Z,0.90
2018-12-22T02:43:10.280Z,0.60
2018-12-22T02:45:37.941Z,0.73
2018-12-22T02:48:05.604Z,0.90
2018-12-22T02:50:33.088Z,1.13
2018-12-22T02:53:00.562Z,0.87
2018-12-22T02:55:28.044Z,0.70
2018-12-22T02:57:55.539Z,0.80
2018-12-22T03:00:23.028Z,0.70
2018-12-22T03:02:50.555Z,0.70
2018-12-22T03:05:18.028Z,0.70
2018-12-22T03:07:45.597Z,0.90
2018-12-22T03:10:13.132Z,0.80
2018-12-22T03:12:40.708Z,1.20
2018-12-22T03:15:08.186Z,0.90
2018-12-22T03:17:35.677Z,0.60
2018-12-22T03:20:04.475Z,0.63
2018-12-22T03:22:31.970Z,0.70
2018-12-22T03:24:59.540Z,0.60
2018-12-22T03:27:27.024Z,0.50
2018-12-22T03:29:54.518Z,0.70
2018-12-22T03:32:22.043Z,0.87
2018-12-22T03:34:49.501Z,0.70
2018-12-22T03:37:16.982Z,0.70
2018-12-22T03:39:44.460Z,0.50
2018-12-22T03:42:11.956Z,0.70
2018-12-22T03:44:39.541Z,0.60
2018-12-22T03:47:07.026Z,0.73
2018-12-22T03:49:34.523Z,0.70
2018-12-22T03:52:02.085Z,0.43
2018-12-22T03:54:29.644Z,0.50
2018-12-22T03:56:57.101Z,0.43
2018-12-22T03:59:25.288Z,0.60
2018-12-22T04:01:53.064Z,0.57
2018-12-22T04:04:20.605Z,0.50
2018-12-22T04:06:48.106Z,0.50
2018-12-22T04:09:15.581Z,0.50
2018-12-22T04:11:43.101Z,0.63
2018-12-22T04:14:10.591Z,0.57
2018-12-22T04:16:38.070Z,0.50
2018-12-22T04:19:05.566Z,0.53
2018-12-22T04:21:33.135Z,0.50
2018-12-22T04:24:00.699Z,0.40
2018-12-22T04:26:28.256Z,0.63
2018-12-22T04:28:55.741Z,0.70
2018-12-22T04:31:23.901Z,0.70
2018-12-22T04:33:51.435Z,0.30
2018-12-22T04:36:18.935Z,0.50
2018-12-22T04:38:46.416Z,0.50
2018-12-22T04:41:13.917Z,0.40
2018-12-22T04:43:41.486Z,0.50
2018-12-22T04:46:09.057Z,0.40
2018-12-22T04:48:36.557Z,0.60
2018-12-22T04:51:04.182Z,0.40
2018-12-22T04:53:31.699Z,0.47
2018-12-22T04:55:59.197Z,0.40
2018-12-22T04:58:26.683Z,0.50
2018-12-22T05:00:54.246Z,0.40
2018-12-22T05:03:21.783Z,0.40
2018-12-22T05:05:49.274Z,0.40
2018-12-22T05:08:16.882Z,0.50
2018-12-22T05:10:44.445Z,0.60
2018-12-22T05:13:11.929Z,0.37
2018-12-22T05:15:39.418Z,0.77
2018-12-22T05:18:06.920Z,0.60
2018-12-22T05:20:34.484Z,0.80
2018-12-22T05:23:01.952Z,1.40
2018-12-22T05:25:29.504Z,0.50
2018-12-22T05:27:56.972Z,1.10
2018-12-22T05:30:24.524Z,1.20
2018-12-22T05:32:52.016Z,1.90
2018-12-22T05:35:19.598Z,1.00
2018-12-22T05:37:47.080Z,0.90
2018-12-22T05:40:14.662Z,0.93
2018-12-22T05:42:42.232Z,0.90
2018-12-22T05:45:09.791Z,0.97
2018-12-22T05:47:37.378Z,1.17
2018-12-22T05:50:06.586Z,1.00
2018-12-22T05:52:34.117Z,0.83
2018-12-22T05:55:01.609Z,0.70
2018-12-22T05:57:29.146Z,1.20
2018-12-22T06:00:00.664Z,1.20
2018-12-22T06:02:26.215Z,1.00
2018-12-22T06:04:53.686Z,1.20
2018-12-22T06:07:21.209Z,0.97
2018-12-22T06:09:48.685Z,0.97
2018-12-22T06:12:16.182Z,1.10
2018-12-22T06:14:43.650Z,1.00
2018-12-22T06:17:11.234Z,1.00
2018-12-22T06:19:38.825Z,1.27
2018-12-22T06:22:06.296Z,1.20
2018-12-22T06:24:33.803Z,1.50
2018-12-22T06:27:01.313Z,1.30
2018-12-22T06:29:28.777Z,1.20
2018-12-22T06:31:56.329Z,1.40
2018-12-22T06:34:23.872Z,1.20
2018-12-22T06:36:51.348Z,1.20
2018-12-22T06:39:18.808Z,1.40
2018-12-22T06:41:46.296Z,1.00
2018-12-22T06:44:13.770Z,1.00
2018-12-22T06:46:41.285Z,1.00
2018-12-22T06:49:08.839Z,1.07
2018-12-22T06:51:36.396Z,1.20
2018-12-22T06:54:03.957Z,1.10
2018-12-22T06:56:31.441Z,1.43
2018-12-22T06:58:58.977Z,1.17
2018-12-22T07:01:26.542Z,1.10
2018-12-22T07:03:54.103Z,1.27
2018-12-22T07:06:21.659Z,1.40
2018-12-22T07:08:49.165Z,1.30
2018-12-22T07:11:16.688Z,1.50
2018-12-22T07:13:44.181Z,1.40
2018-12-22T07:16:11.654Z,1.30
2018-12-22T07:18:39.162Z,1.20
2018-12-22T07:21:06.660Z,1.40
2018-12-22T07:23:34.177Z,1.30
2018-12-22T07:26:01.651Z,1.33
2018-12-22T07:28:29.196Z,1.50
2018-12-22T07:30:56.778Z,1.27
2018-12-22T07:33:24.303Z,1.30
2018-12-22T07:35:51.764Z,1.30
2018-12-22T07:38:19.342Z,1.23
2018-12-22T07:40:46.809Z,1.30
2018-12-22T07:43:14.290Z,1.50
2018-12-22T07:45:41.784Z,1.10
2018-12-22T07:48:09.279Z,1.30
2018-12-22T07:50:36.756Z,1.60
2018-12-22T07:53:04.242Z,1.67
2018-12-22T07:55:31.784Z,1.47
2018-12-22T07:57:59.523Z,1.50
2018-12-22T08:00:34.613Z,1.60
2018-12-22T08:02:56.841Z,2.17
2018-12-22T08:05:24.326Z,2.20
2018-12-22T08:07:51.809Z,2.00
2018-12-22T08:10:19.290Z,1.83
2018-12-22T08:12:46.760Z,1.70
2018-12-22T08:15:14.256Z,1.50
2018-12-22T08:17:41.729Z,2.10
2018-12-22T08:20:09.235Z,2.10
2018-12-22T08:22:36.810Z,2.30
2018-12-22T08:25:04.578Z,2.13
2018-12-22T08:27:32.113Z,1.70
2018-12-22T08:29:59.652Z,1.97
2018-12-22T08:32:27.147Z,2.33
2018-12-22T08:34:54.692Z,2.70
2018-12-22T08:37:22.257Z,2.33
2018-12-22T08:39:49.742Z,2.50
2018-12-22T08:42:17.226Z,2.20
2018-12-22T08:44:44.726Z,2.30
2018-12-22T08:47:12.217Z,2.43
2018-12-22T08:49:39.750Z,2.20
2018-12-22T08:52:07.336Z,2.10
2018-12-22T08:54:34.859Z,2.57
2018-12-22T08:57:02.437Z,2.13
2018-12-22T08:59:29.917Z,2.50
2018-12-22T09:01:57.446Z,2.27
2018-12-22T09:04:25.026Z,2.60
2018-12-22T09:06:52.545Z,3.10
2018-12-22T09:09:20.002Z,2.60
2018-12-22T09:11:47.462Z,2.60
2018-12-22T09:14:15.042Z,2.33
2018-12-22T09:16:42.523Z,2.37
2018-12-22T09:19:10.078Z,2.50
2018-12-22T09:21:37.634Z,2.70
2018-12-22T09:24:05.179Z,2.60
2018-12-22T09:26:32.707Z,2.50
2018-12-22T09:29:00.177Z,2.40
2018-12-22T09:31:27.766Z,2.20
2018-12-22T09:33:55.340Z,2.60
2018-12-22T09:36:22.902Z,2.50
2018-12-22T09:38:50.436Z,2.53
2018-12-22T09:41:18.000Z,3.43
2018-12-22T09:43:45.463Z,2.77
2018-12-22T09:46:13.029Z,2.43
2018-12-22T09:48:40.548Z,2.50
2018-12-22T09:51:08.089Z,2.20
2018-12-22T09:53:35.581Z,2.27
2018-12-22T09:56:03.236Z,2.13
2018-12-22T09:58:30.727Z,2.20
2018-12-22T10:00:58.213Z,2.10
2018-12-22T10:03:25.759Z,1.90
2018-12-22T10:05:53.319Z,1.83
2018-12-22T10:08:20.869Z,1.97
2018-12-22T10:10:48.341Z,1.70
2018-12-22T10:13:15.841Z,1.70
2018-12-22T10:15:43.360Z,1.87
2018-12-22T10:18:10.934Z,1.60
2018-12-22T10:20:38.474Z,1.90
2018-12-22T10:23:05.974Z,1.83
2018-12-22T10:25:34.276Z,1.53
2018-12-22T10:28:01.758Z,1.57
2018-12-22T10:30:29.225Z,1.40
2018-12-22T10:32:56.739Z,1.43
2018-12-22T10:35:26.805Z,1.60
2018-12-22T10:37:54.308Z,1.33
2018-12-22T10:40:21.802Z,1.40
2018-12-22T10:42:49.401Z,2.10
2018-12-22T10:45:16.941Z,1.40
2018-12-22T10:47:44.481Z,1.40
2018-12-22T10:50:11.963Z,1.20
2018-12-22T10:52:39.558Z,1.40
2018-12-22T10:55:08.032Z,1.17
2018-12-22T10:57:35.531Z,1.33
2018-12-22T11:00:06.014Z,1.40
2018-12-22T11:02:33.599Z,1.30
2018-12-22T11:05:01.128Z,1.00
2018-12-22T11:07:28.697Z,1.30
2018-12-22T11:09:56.270Z,1.20
2018-12-22T11:12:24.667Z,1.27
2018-12-22T11:14:52.146Z,1.30
2018-12-22T11:17:19.633Z,1.40
2018-12-22T11:19:47.209Z,1.40
2018-12-22T11:22:14.756Z,1.40
2018-12-22T11:24:42.332Z,1.53
2018-12-22T11:27:09.893Z,1.73
2018-12-22T11:29:37.404Z,1.83
2018-12-22T11:32:04.928Z,2.00
2018-12-22T11:34:32.417Z,1.80
2018-12-22T11:36:59.914Z,1.77
2018-12-22T11:39:27.498Z,1.70
2018-12-22T11:41:55.322Z,1.77
2018-12-22T11:44:22.925Z,1.70
2018-12-22T11:46:50.531Z,1.50
2018-12-22T11:49:18.029Z,1.40
2018-12-22T11:51:45.546Z,1.43
2018-12-22T11:54:13.088Z,1.57
2018-12-22T11:56:40.589Z,1.60
2018-12-22T11:59:08.092Z,1.70
2018-12-22T12:01:43.375Z,1.60
2018-12-22T12:04:05.120Z,1.50
2018-12-22T12:06:32.621Z,1.73
2018-12-22T12:09:00.101Z,1.10
2018-12-22T12:11:28.021Z,1.23
2018-12-22T12:13:55.514Z,1.40
2018-12-22T12:16:23.800Z,1.20
2018-12-22T12:18:59.817Z,1.13
2018-12-22T12:21:27.396Z,1.20
2018-12-22T12:23:54.881Z,1.27
2018-12-22T12:26:22.361Z,1.10
2018-12-22T12:28:49.879Z,1.10
2018-12-22T12:31:17.430Z,1.30
2018-12-22T12:33:44.911Z,1.40
2018-12-22T12:36:12.393Z,1.30
2018-12-22T12:38:39.862Z,1.40
2018-12-22T12:41:07.368Z,1.30
2018-12-22T12:43:34.852Z,1.60
2018-12-22T12:46:02.381Z,1.20
2018-12-22T12:48:29.841Z,1.17
2018-12-22T12:50:57.363Z,1.60
2018-12-22T12:53:24.934Z,1.40
2018-12-22T12:55:52.460Z,1.60
2018-12-22T12:58:19.927Z,1.53
2018-12-22T13:00:47.489Z,1.20
2018-12-22T13:03:14.990Z,1.57
2018-12-22T13:05:42.601Z,1.43
2018-12-22T13:08:10.107Z,1.40
2018-12-22T13:10:37.691Z,1.40
2018-12-22T13:13:13.843Z,1.10
2018-12-22T13:15:41.429Z,1.30
2018-12-22T13:18:08.910Z,1.50
2018-12-22T13:20:36.430Z,1.50
2018-12-22T13:23:04.013Z,1.67
2018-12-22T13:25:31.565Z,1.57
2018-12-22T13:27:59.037Z,1.70
2018-12-22T13:30:26.526Z,1.50
2018-12-22T13:32:54.273Z,1.57
2018-12-22T13:35:22.032Z,1.57
2018-12-22T13:37:49.501Z,1.60
2018-12-22T13:40:16.998Z,1.50
2018-12-22T13:42:44.477Z,1.50
2018-12-22T13:45:11.965Z,1.50
2018-12-22T13:47:39.598Z,1.60
2018-12-22T13:50:11.217Z,1.40
2018-12-22T13:52:38.785Z,1.50
2018-12-22T13:55:08.392Z,1.80
2018-12-22T13:57:37.486Z,1.90
2018-12-22T14:00:10.430Z,2.00
2018-12-22T14:02:38.024Z,1.70
2018-12-22T14:05:09.233Z,1.90
2018-12-22T14:07:36.698Z,1.70
2018-12-22T14:10:07.976Z,2.00
2018-12-22T14:12:35.466Z,2.00
2018-12-22T14:15:03.549Z,2.00
2018-12-22T14:17:31.041Z,1.90
2018-12-22T14:19:58.529Z,2.30
2018-12-22T14:22:26.058Z,2.03
2018-12-22T14:24:53.519Z,2.20
2018-12-22T14:27:21.002Z,2.10
2018-12-22T14:29:48.482Z,2.03
2018-12-22T14:32:15.964Z,2.40
2018-12-22T14:34:47.334Z,2.10
2018-12-22T14:37:12.925Z,2.10
2018-12-22T14:39:40.396Z,2.10
2018-12-22T14:42:07.974Z,2.37
2018-12-22T14:44:35.475Z,2.10
2018-12-22T14:47:02.981Z,2.40
2018-12-22T14:49:30.469Z,2.27
2018-12-22T14:51:58.014Z,2.40
2018-12-22T14:54:25.523Z,2.17
2018-12-22T14:56:53.162Z,2.30
2018-12-22T14:59:20.701Z,2.30
2018-12-22T15:01:48.308Z,2.33
2018-12-22T15:04:16.011Z,2.57
2018-12-22T15:06:43.597Z,2.40
2018-12-22T15:09:13.353Z,2.70
2018-12-22T15:11:40.600Z,2.80
2018-12-22T15:14:08.173Z,2.97
2018-12-22T15:16:35.678Z,2.20
2018-12-22T15:19:03.191Z,2.60
2018-12-22T15:21:30.718Z,2.40
2018-12-22T15:23:58.210Z,2.50
2018-12-22T15:26:25.803Z,2.90
2018-12-22T15:28:53.279Z,2.90
2018-12-22T15:31:20.829Z,2.93
2018-12-22T15:33:48.420Z,2.77
2018-12-22T15:36:15.894Z,2.83
2018-12-22T15:38:43.429Z,2.73
2018-12-22T15:41:10.982Z,2.97
2018-12-22T15:43:38.552Z,2.87
2018-12-22T15:46:06.091Z,2.70
2018-12-22T15:48:33.570Z,2.70
2018-12-22T15:51:01.049Z,2.50
2018-12-22T15:53:28.545Z,2.53
2018-12-22T15:55:56.013Z,2.60
2018-12-22T15:58:23.501Z,2.60
2018-12-22T16:00:51.009Z,2.90
2018-12-22T16:03:18.518Z,2.63
2018-12-22T16:05:46.063Z,2.57
2018-12-22T16:08:13.617Z,2.90
2018-12-22T16:10:41.096Z,2.73
2018-12-22T16:13:08.589Z,2.90
2018-12-22T16:15:36.117Z,2.90
2018-12-22T16:18:03.670Z,3.07
2018-12-22T16:20:32.826Z,3.90
2018-12-22T16:23:00.640Z,3.43
2018-12-22T16:25:28.127Z,3.53
2018-12-22T16:27:59.701Z,3.77
2018-12-22T16:30:40.373Z,3.70
2018-12-22T16:33:07.878Z,4.00
2018-12-22T16:35:35.549Z,4.57
2018-12-22T16:38:03.101Z,3.50
2018-12-22T16:40:30.682Z,3.57
2018-12-22T16:42:58.197Z,3.33
2018-12-22T16:45:25.782Z,3.30
2018-12-22T16:47:53.368Z,3.30
2018-12-22T16:50:20.920Z,3.83
2018-12-22T16:52:48.399Z,3.70
2018-12-22T16:55:16.307Z,3.40
2018-12-22T17:00:48.713Z,4.50
2018-12-22T17:03:16.245Z,3.20
2018-12-22T17:05:43.749Z,3.60
2018-12-22T17:08:11.258Z,3.37
2018-12-22T17:10:38.784Z,5.07
2018-12-22T17:13:06.342Z,4.50
2018-12-22T17:15:33.933Z,3.50
2018-12-22T17:18:01.404Z,4.47
2018-12-22T17:20:29.313Z,4.70
2018-12-22T17:23:07.485Z,4.27
2018-12-22T17:25:37.879Z,3.80
2018-12-22T17:28:05.379Z,4.17
2018-12-22T17:30:32.869Z,3.93
2018-12-22T17:33:00.446Z,4.40
2018-12-22T17:35:28.026Z,4.30
2018-12-22T17:37:55.509Z,4.27
2018-12-22T17:40:23.006Z,4.33
2018-12-22T17:42:50.469Z,5.13
2018-12-22T17:45:17.952Z,4.30
2018-12-22T17:47:45.477Z,4.80
2018-12-22T17:50:12.970Z,4.30
2018-12-22T17:52:40.545Z,3.90
2018-12-22T17:55:09.653Z,4.57
2018-12-22T17:57:37.226Z,5.07
2018-12-22T18:00:09.298Z,4.77
2018-12-22T18:02:36.846Z,4.90
2018-12-22T18:05:06.229Z,4.80
2018-12-22T18:07:33.709Z,4.37
2018-12-22T18:10:01.191Z,4.83
2018-12-22T18:12:28.709Z,5.13
2018-12-22T18:14:56.208Z,5.67
2018-12-22T18:17:23.709Z,4.23
2018-12-22T18:19:51.281Z,5.17
2018-12-22T18:22:18.794Z,12.37
2018-12-22T18:24:46.295Z,5.67
2018-12-22T18:27:13.762Z,5.17
2018-12-22T18:29:41.253Z,5.03
2018-12-22T18:32:08.770Z,5.20
2018-12-22T18:34:36.254Z,5.80
2018-12-22T18:37:03.781Z,5.67
2018-12-22T18:39:31.348Z,6.00
2018-12-22T18:41:58.914Z,5.23
2018-12-22T18:44:26.398Z,5.03
2018-12-22T18:46:54.123Z,5.13
2018-12-22T18:49:21.614Z,5.30
2018-12-22T18:51:49.103Z,5.90
2018-12-22T18:54:16.841Z,5.30
2018-12-22T18:56:44.334Z,5.27
2018-12-22T18:59:12.025Z,5.07
2018-12-22T19:01:39.508Z,5.40
2018-12-22T19:04:07.068Z,6.20
2018-12-22T19:06:34.658Z,5.63
2018-12-22T19:09:02.188Z,5.80
2018-12-22T19:11:29.906Z,5.20
2018-12-22T19:13:57.410Z,5.87
2018-12-22T19:16:24.962Z,6.40
2018-12-22T19:18:52.463Z,5.87
2018-12-22T19:21:19.925Z,6.27
2018-12-22T19:23:47.433Z,6.80
2018-12-22T19:26:14.903Z,6.07
2018-12-22T19:28:42.461Z,5.93
2018-12-22T19:31:09.978Z,6.23
2018-12-22T19:33:37.494Z,5.80
2018-12-22T19:36:05.002Z,6.07
2018-12-22T19:38:32.488Z,5.97
2018-12-22T19:40:59.967Z,5.63
2018-12-22T19:43:27.462Z,6.13
2018-12-22T19:45:54.993Z,6.10
2018-12-22T19:48:22.480Z,6.63
2018-12-22T19:50:49.966Z,6.67
2018-12-22T19:53:17.458Z,5.70
2018-12-22T19:55:44.933Z,5.87
2018-12-22T19:58:12.437Z,5.97
2018-12-22T20:00:39.920Z,6.10
2018-12-22T20:03:07.412Z,6.50
2018-12-22T20:05:34.921Z,6.43
2018-12-22T20:08:02.623Z,6.70
2018-12-22T20:10:30.121Z,6.70
2018-12-22T20:12:57.600Z,5.97
2018-12-22T20:15:25.090Z,7.10
2018-12-22T20:17:52.684Z,7.20
2018-12-22T20:20:20.227Z,6.57
2018-12-22T20:22:47.724Z,6.83
2018-12-22T20:25:15.221Z,7.70
2018-12-22T20:27:42.696Z,7.47
2018-12-22T20:30:10.200Z,6.77
2018-12-22T20:32:37.668Z,6.97
2018-12-22T20:35:05.172Z,6.93
2018-12-22T20:37:32.633Z,6.60
2018-12-22T20:40:00.166Z,6.43
2018-12-22T20:42:27.771Z,7.03
2018-12-22T20:44:55.310Z,7.13
2018-12-22T20:47:22.789Z,7.50
2018-12-22T20:49:53.247Z,8.23
2018-12-22T20:52:20.773Z,8.07
2018-12-22T20:54:48.313Z,8.07
2018-12-22T20:57:15.782Z,7.57
2018-12-22T20:59:43.283Z,7.47
2018-12-22T21:02:10.767Z,7.40
2018-12-22T21:04:38.473Z,8.33
2018-12-22T21:07:05.978Z,7.80
2018-12-22T21:09:33.518Z,7.33
2018-12-22T21:12:01.040Z,7.33
2018-12-22T21:14:28.545Z,7.53
2018-12-22T21:16:56.093Z,8.30
2018-12-22T21:19:24.521Z,8.70
2018-12-22T21:21:52.056Z,7.90
2018-12-22T21:24:19.523Z,7.97
2018-12-22T21:26:47.049Z,8.90
2018-12-22T21:29:14.522Z,9.70
2018-12-22T21:31:42.029Z,11.03
2018-12-22T21:34:09.623Z,10.57
2018-12-22T21:36:37.119Z,12.60
2018-12-22T21:39:05.865Z,12.30
2018-12-22T21:41:34.439Z,11.97
2018-12-22T21:44:02.333Z,11.63
2018-12-22T21:46:30.050Z,9.50
2018-12-22T21:48:57.661Z,9.77
2018-12-22T21:51:25.249Z,10.10
2018-12-22T21:53:52.840Z,10.20
2018-12-22T21:56:20.391Z,10.10
2018-12-22T21:58:47.887Z,9.57
2018-12-22T22:01:15.389Z,10.60
2018-12-22T22:03:42.862Z,10.50
2018-12-22T22:06:10.445Z,10.23
2018-12-22T22:08:37.930Z,10.90
2018-12-22T22:11:05.432Z,10.73
2018-12-22T22:13:32.943Z,11.73
2018-12-22T22:16:00.618Z,11.57
2018-12-22T22:18:28.133Z,12.03
2018-12-22T22:20:55.737Z,12.00
2018-12-22T22:23:23.296Z,13.17
2018-12-22T22:25:50.871Z,10.70
2018-12-22T22:28:18.367Z,9.70
2018-12-22T22:30:45.894Z,10.30
2018-12-22T22:33:13.513Z,12.00
2018-12-22T22:35:41.095Z,12.80
2018-12-22T22:38:08.579Z,11.67
2018-12-22T22:40:36.107Z,12.43
2018-12-22T22:43:03.581Z,11.40
2018-12-22T22:45:31.069Z,11.87
2018-12-22T22:47:58.564Z,11.23
2018-12-22T22:50:26.039Z,10.83
2018-12-22T22:52:53.674Z,10.50
2018-12-22T22:55:21.169Z,10.30
2018-12-22T22:57:48.698Z,10.33
2018-12-22T23:00:18.371Z,10.73
2018-12-22T23:02:45.928Z,10.07
2018-12-22T23:05:13.487Z,9.80
2018-12-22T23:07:40.976Z,10.40
2018-12-22T23:10:08.582Z,10.40
2018-12-22T23:12:36.269Z,10.17
2018-12-22T23:15:04.257Z,12.10
2018-12-22T23:17:31.744Z,12.70
2018-12-22T23:19:59.266Z,11.40
2018-12-22T23:22:26.745Z,10.07
2018-12-22T23:24:54.228Z,9.53
2018-12-22T23:27:21.729Z,10.37
2018-12-22T23:29:49.207Z,9.60
2018-12-22T23:32:16.682Z,9.70
2018-12-22T23:34:44.169Z,9.10
2018-12-22T23:37:11.660Z,9.17
2018-12-22T23:39:39.212Z,8.60
2018-12-22T23:42:06.693Z,9.43
2018-12-22T23:44:34.264Z,8.13
2018-12-22T23:47:01.747Z,7.80
2018-12-22T23:49:29.258Z,8.23
2018-12-22T23:51:56.724Z,7.97
2018-12-22T23:54:24.210Z,8.30
2018-12-22T23:56:51.669Z,8.17
2018-12-22T23:59:19.160Z,8.80
